sensor_id;sensor_type;location;lat;lon;timestamp;P1;durP1;ratioP1;P2;durP2;ratioP2
31836;SDS011;18401;49.344;6.240;2023-12-14T00:01:11;16.60;;;7.70;;
31836;SDS011;18401;49.344;6.240;2023-12-14T00:03:38;11.52;;;6.70;;
31836;SDS011;18401;49.344;6.240;2023-12-14T00:06:06;12.95;;;6.80;;
31836;SDS011;18401;49.344;6.240;2023-12-14T00:08:38;13.50;;;7.10;;
31836;SDS011;18401;49.344;6.240;2023-12-14T00:11:08;12.93;;;6.20;;
31836;SDS011;18401;49.344;6.240;2023-12-14T00:13:35;11.40;;;6.43;;
31836;SDS011;18401;49.344;6.240;2023-12-14T00:16:01;10.13;;;5.72;;
31836;SDS011;18401;49.344;6.240;2023-12-14T00:18:27;15.00;;;6.43;;
31836;SDS011;18401;49.344;6.240;2023-12-14T00:20:53;16.02;;;6.55;;
31836;SDS011;18401;49.344;6.240;2023-12-14T00:23:22;12.45;;;6.43;;
31836;SDS011;18401;49.344;6.240;2023-12-14T00:25:48;11.63;;;5.50;;
31836;SDS011;18401;49.344;6.240;2023-12-14T00:28:13;10.48;;;5.60;;
31836;SDS011;18401;49.344;6.240;2023-12-14T00:30:39;9.95;;;5.55;;
31836;SDS011;18401;49.344;6.240;2023-12-14T00:33:05;12.88;;;6.22;;
31836;SDS011;18401;49.344;6.240;2023-12-14T00:35:31;8.27;;;4.85;;
31836;SDS011;18401;49.344;6.240;2023-12-14T00:37:56;9.63;;;5.88;;
31836;SDS011;18401;49.344;6.240;2023-12-14T00:40:22;7.60;;;4.63;;
31836;SDS011;18401;49.344;6.240;2023-12-14T00:42:47;7.63;;;4.65;;
31836;SDS011;18401;49.344;6.240;2023-12-14T00:45:13;9.48;;;4.93;;
31836;SDS011;18401;49.344;6.240;2023-12-14T00:47:39;11.90;;;6.13;;
31836;SDS011;18401;49.344;6.240;2023-12-14T00:50:04;8.45;;;4.95;;
31836;SDS011;18401;49.344;6.240;2023-12-14T00:52:30;8.13;;;5.22;;
31836;SDS011;18401;49.344;6.240;2023-12-14T00:54:56;10.18;;;5.28;;
31836;SDS011;18401;49.344;6.240;2023-12-14T00:57:22;9.05;;;5.00;;
31836;SDS011;18401;49.344;6.240;2023-12-14T00:59:47;12.35;;;5.03;;
31836;SDS011;18401;49.344;6.240;2023-12-14T01:02:13;8.45;;;4.20;;
31836;SDS011;18401;49.344;6.240;2023-12-14T01:04:39;8.18;;;4.55;;
31836;SDS011;18401;49.344;6.240;2023-12-14T01:07:04;12.32;;;5.28;;
31836;SDS011;18401;49.344;6.240;2023-12-14T01:09:30;15.85;;;5.35;;
31836;SDS011;18401;49.344;6.240;2023-12-14T01:11:56;12.07;;;5.30;;
31836;SDS011;18401;49.344;6.240;2023-12-14T01:14:21;10.75;;;5.53;;
31836;SDS011;18401;49.344;6.240;2023-12-14T01:16:47;9.15;;;5.50;;
31836;SDS011;18401;49.344;6.240;2023-12-14T01:19:14;14.02;;;5.72;;
31836;SDS011;18401;49.344;6.240;2023-12-14T01:21:40;7.75;;;5.07;;
31836;SDS011;18401;49.344;6.240;2023-12-14T01:24:05;13.07;;;5.40;;
31836;SDS011;18401;49.344;6.240;2023-12-14T01:26:31;11.18;;;5.57;;
31836;SDS011;18401;49.344;6.240;2023-12-14T01:28:57;13.50;;;5.97;;
31836;SDS011;18401;49.344;6.240;2023-12-14T01:31:24;10.88;;;5.55;;
31836;SDS011;18401;49.344;6.240;2023-12-14T01:33:50;6.93;;;4.85;;
31836;SDS011;18401;49.344;6.240;2023-12-14T01:36:19;8.55;;;4.95;;
31836;SDS011;18401;49.344;6.240;2023-12-14T01:38:46;15.57;;;6.20;;
31836;SDS011;18401;49.344;6.240;2023-12-14T01:41:12;10.48;;;5.50;;
31836;SDS011;18401;49.344;6.240;2023-12-14T01:43:37;10.93;;;5.47;;
31836;SDS011;18401;49.344;6.240;2023-12-14T01:46:03;10.23;;;5.72;;
31836;SDS011;18401;49.344;6.240;2023-12-14T01:48:29;11.57;;;6.10;;
31836;SDS011;18401;49.344;6.240;2023-12-14T01:50:54;9.38;;;5.70;;
31836;SDS011;18401;49.344;6.240;2023-12-14T01:53:20;9.45;;;5.90;;
31836;SDS011;18401;49.344;6.240;2023-12-14T01:55:46;14.45;;;6.40;;
31836;SDS011;18401;49.344;6.240;2023-12-14T01:58:12;14.82;;;6.20;;
31836;SDS011;18401;49.344;6.240;2023-12-14T02:00:39;14.38;;;6.30;;
31836;SDS011;18401;49.344;6.240;2023-12-14T02:03:16;13.27;;;5.82;;
31836;SDS011;18401;49.344;6.240;2023-12-14T02:05:41;10.05;;;6.15;;
31836;SDS011;18401;49.344;6.240;2023-12-14T02:08:07;21.75;;;7.28;;
31836;SDS011;18401;49.344;6.240;2023-12-14T02:10:33;13.70;;;6.97;;
31836;SDS011;18401;49.344;6.240;2023-12-14T02:13:00;13.45;;;6.10;;
31836;SDS011;18401;49.344;6.240;2023-12-14T02:15:27;12.55;;;6.72;;
31836;SDS011;18401;49.344;6.240;2023-12-14T02:17:52;14.20;;;7.03;;
31836;SDS011;18401;49.344;6.240;2023-12-14T02:20:18;13.27;;;5.95;;
31836;SDS011;18401;49.344;6.240;2023-12-14T02:22:50;14.77;;;6.80;;
31836;SDS011;18401;49.344;6.240;2023-12-14T02:25:20;15.23;;;6.30;;
31836;SDS011;18401;49.344;6.240;2023-12-14T02:27:47;14.70;;;6.85;;
31836;SDS011;18401;49.344;6.240;2023-12-14T02:30:14;14.60;;;7.00;;
31836;SDS011;18401;49.344;6.240;2023-12-14T02:32:40;16.45;;;7.68;;
31836;SDS011;18401;49.344;6.240;2023-12-14T02:35:05;13.18;;;7.18;;
31836;SDS011;18401;49.344;6.240;2023-12-14T02:37:31;11.85;;;6.93;;
31836;SDS011;18401;49.344;6.240;2023-12-14T02:39:58;15.75;;;7.45;;
31836;SDS011;18401;49.344;6.240;2023-12-14T02:42:24;15.80;;;8.13;;
31836;SDS011;18401;49.344;6.240;2023-12-14T02:44:50;16.17;;;8.10;;
31836;SDS011;18401;49.344;6.240;2023-12-14T02:47:16;17.33;;;8.35;;
31836;SDS011;18401;49.344;6.240;2023-12-14T02:49:42;16.98;;;8.63;;
31836;SDS011;18401;49.344;6.240;2023-12-14T02:52:09;16.10;;;8.32;;
31836;SDS011;18401;49.344;6.240;2023-12-14T02:54:34;18.75;;;9.32;;
31836;SDS011;18401;49.344;6.240;2023-12-14T02:57:01;19.13;;;8.18;;
31836;SDS011;18401;49.344;6.240;2023-12-14T02:59:27;15.88;;;7.25;;
31836;SDS011;18401;49.344;6.240;2023-12-14T03:01:52;16.77;;;8.02;;
31836;SDS011;18401;49.344;6.240;2023-12-14T03:04:18;15.10;;;7.65;;
31836;SDS011;18401;49.344;6.240;2023-12-14T03:06:44;12.15;;;7.07;;
31836;SDS011;18401;49.344;6.240;2023-12-14T03:09:09;13.75;;;7.18;;
31836;SDS011;18401;49.344;6.240;2023-12-14T03:11:35;17.42;;;7.80;;
31836;SDS011;18401;49.344;6.240;2023-12-14T03:14:01;15.50;;;7.25;;
31836;SDS011;18401;49.344;6.240;2023-12-14T03:16:26;12.82;;;7.13;;
31836;SDS011;18401;49.344;6.240;2023-12-14T03:18:52;15.57;;;6.45;;
31836;SDS011;18401;49.344;6.240;2023-12-14T03:21:18;14.48;;;7.70;;
31836;SDS011;18401;49.344;6.240;2023-12-14T03:23:44;13.95;;;6.78;;
31836;SDS011;18401;49.344;6.240;2023-12-14T03:26:10;14.55;;;6.57;;
31836;SDS011;18401;49.344;6.240;2023-12-14T03:28:36;13.32;;;7.15;;
31836;SDS011;18401;49.344;6.240;2023-12-14T03:31:02;14.23;;;6.68;;
31836;SDS011;18401;49.344;6.240;2023-12-14T03:33:27;14.07;;;7.10;;
31836;SDS011;18401;49.344;6.240;2023-12-14T03:35:53;10.77;;;6.30;;
31836;SDS011;18401;49.344;6.240;2023-12-14T03:38:19;16.25;;;8.30;;
31836;SDS011;18401;49.344;6.240;2023-12-14T03:40:44;14.95;;;6.88;;
31836;SDS011;18401;49.344;6.240;2023-12-14T03:43:10;13.80;;;7.63;;
31836;SDS011;18401;49.344;6.240;2023-12-14T03:45:36;15.82;;;7.95;;
31836;SDS011;18401;49.344;6.240;2023-12-14T03:48:01;15.68;;;7.63;;
31836;SDS011;18401;49.344;6.240;2023-12-14T03:50:27;12.43;;;6.70;;
31836;SDS011;18401;49.344;6.240;2023-12-14T03:52:54;13.82;;;7.10;;
31836;SDS011;18401;49.344;6.240;2023-12-14T03:55:19;20.77;;;8.13;;
31836;SDS011;18401;49.344;6.240;2023-12-14T03:57:45;18.67;;;7.35;;
31836;SDS011;18401;49.344;6.240;2023-12-14T04:00:11;17.10;;;8.23;;
31836;SDS011;18401;49.344;6.240;2023-12-14T04:02:38;15.60;;;6.72;;
31836;SDS011;18401;49.344;6.240;2023-12-14T04:05:05;14.38;;;7.07;;
31836;SDS011;18401;49.344;6.240;2023-12-14T04:07:35;15.70;;;7.47;;
31836;SDS011;18401;49.344;6.240;2023-12-14T04:10:01;17.58;;;6.93;;
31836;SDS011;18401;49.344;6.240;2023-12-14T04:12:27;14.90;;;8.20;;
31836;SDS011;18401;49.344;6.240;2023-12-14T04:14:53;13.07;;;7.20;;
31836;SDS011;18401;49.344;6.240;2023-12-14T04:17:18;13.73;;;7.32;;
31836;SDS011;18401;49.344;6.240;2023-12-14T04:19:44;10.52;;;6.57;;
31836;SDS011;18401;49.344;6.240;2023-12-14T04:22:10;11.63;;;6.53;;
31836;SDS011;18401;49.344;6.240;2023-12-14T04:24:35;12.18;;;7.07;;
31836;SDS011;18401;49.344;6.240;2023-12-14T04:27:01;14.43;;;6.97;;
31836;SDS011;18401;49.344;6.240;2023-12-14T04:29:27;13.50;;;7.07;;
31836;SDS011;18401;49.344;6.240;2023-12-14T04:31:52;18.00;;;7.63;;
31836;SDS011;18401;49.344;6.240;2023-12-14T04:34:18;15.45;;;7.25;;
31836;SDS011;18401;49.344;6.240;2023-12-14T04:36:47;15.13;;;7.63;;
31836;SDS011;18401;49.344;6.240;2023-12-14T04:39:13;13.45;;;6.78;;
31836;SDS011;18401;49.344;6.240;2023-12-14T04:41:39;18.20;;;6.97;;
31836;SDS011;18401;49.344;6.240;2023-12-14T04:44:05;13.95;;;6.80;;
31836;SDS011;18401;49.344;6.240;2023-12-14T04:46:30;14.43;;;6.75;;
31836;SDS011;18401;49.344;6.240;2023-12-14T04:48:56;13.43;;;6.57;;
31836;SDS011;18401;49.344;6.240;2023-12-14T04:51:21;15.45;;;7.28;;
31836;SDS011;18401;49.344;6.240;2023-12-14T04:53:47;18.77;;;7.55;;
31836;SDS011;18401;49.344;6.240;2023-12-14T04:56:13;17.27;;;8.60;;
31836;SDS011;18401;49.344;6.240;2023-12-14T04:58:39;18.52;;;8.52;;
31836;SDS011;18401;49.344;6.240;2023-12-14T05:01:05;18.83;;;8.85;;
31836;SDS011;18401;49.344;6.240;2023-12-14T05:03:31;20.95;;;8.88;;
31836;SDS011;18401;49.344;6.240;2023-12-14T05:05:58;19.90;;;8.98;;
31836;SDS011;18401;49.344;6.240;2023-12-14T05:08:23;20.92;;;9.25;;
31836;SDS011;18401;49.344;6.240;2023-12-14T05:10:49;19.38;;;7.97;;
31836;SDS011;18401;49.344;6.240;2023-12-14T05:13:15;19.13;;;8.45;;
31836;SDS011;18401;49.344;6.240;2023-12-14T05:15:41;18.73;;;8.48;;
31836;SDS011;18401;49.344;6.240;2023-12-14T05:18:06;17.58;;;9.35;;
31836;SDS011;18401;49.344;6.240;2023-12-14T05:20:32;17.10;;;8.75;;
31836;SDS011;18401;49.344;6.240;2023-12-14T05:22:59;26.02;;;9.40;;
31836;SDS011;18401;49.344;6.240;2023-12-14T05:25:24;25.00;;;10.18;;
31836;SDS011;18401;49.344;6.240;2023-12-14T05:27:50;17.33;;;8.50;;
31836;SDS011;18401;49.344;6.240;2023-12-14T05:30:19;21.00;;;9.68;;
31836;SDS011;18401;49.344;6.240;2023-12-14T05:32:45;20.30;;;8.73;;
31836;SDS011;18401;49.344;6.240;2023-12-14T05:35:11;19.90;;;9.65;;
31836;SDS011;18401;49.344;6.240;2023-12-14T05:37:40;20.67;;;9.15;;
31836;SDS011;18401;49.344;6.240;2023-12-14T05:40:07;20.90;;;8.20;;
31836;SDS011;18401;49.344;6.240;2023-12-14T05:42:34;27.02;;;9.00;;
31836;SDS011;18401;49.344;6.240;2023-12-14T05:44:59;18.38;;;8.90;;
31836;SDS011;18401;49.344;6.240;2023-12-14T05:47:26;19.02;;;9.07;;
31836;SDS011;18401;49.344;6.240;2023-12-14T05:49:51;25.23;;;12.48;;
31836;SDS011;18401;49.344;6.240;2023-12-14T05:52:17;24.80;;;9.77;;
31836;SDS011;18401;49.344;6.240;2023-12-14T05:54:43;19.77;;;8.98;;
31836;SDS011;18401;49.344;6.240;2023-12-14T05:57:08;25.38;;;9.48;;
31836;SDS011;18401;49.344;6.240;2023-12-14T05:59:37;26.90;;;8.73;;
31836;SDS011;18401;49.344;6.240;2023-12-14T06:02:04;17.73;;;8.20;;
31836;SDS011;18401;49.344;6.240;2023-12-14T06:04:30;21.45;;;11.30;;
31836;SDS011;18401;49.344;6.240;2023-12-14T06:06:55;21.27;;;10.32;;
31836;SDS011;18401;49.344;6.240;2023-12-14T06:09:21;18.48;;;9.38;;
31836;SDS011;18401;49.344;6.240;2023-12-14T06:11:51;20.00;;;8.90;;
31836;SDS011;18401;49.344;6.240;2023-12-14T06:14:17;16.58;;;7.78;;
31836;SDS011;18401;49.344;6.240;2023-12-14T06:16:42;17.00;;;8.10;;
31836;SDS011;18401;49.344;6.240;2023-12-14T06:19:08;21.45;;;9.45;;
31836;SDS011;18401;49.344;6.240;2023-12-14T06:21:34;20.27;;;8.85;;
31836;SDS011;18401;49.344;6.240;2023-12-14T06:23:59;28.60;;;9.57;;
31836;SDS011;18401;49.344;6.240;2023-12-14T06:26:26;26.33;;;9.77;;
31836;SDS011;18401;49.344;6.240;2023-12-14T06:28:51;19.88;;;8.50;;
31836;SDS011;18401;49.344;6.240;2023-12-14T06:31:17;18.00;;;8.07;;
31836;SDS011;18401;49.344;6.240;2023-12-14T06:33:46;21.05;;;9.30;;
31836;SDS011;18401;49.344;6.240;2023-12-14T06:36:18;17.15;;;8.23;;
31836;SDS011;18401;49.344;6.240;2023-12-14T06:38:43;22.00;;;8.77;;
31836;SDS011;18401;49.344;6.240;2023-12-14T06:41:20;19.63;;;8.95;;
31836;SDS011;18401;49.344;6.240;2023-12-14T06:43:47;17.92;;;8.25;;
31836;SDS011;18401;49.344;6.240;2023-12-14T06:46:13;18.30;;;8.70;;
31836;SDS011;18401;49.344;6.240;2023-12-14T06:48:38;19.10;;;9.00;;
31836;SDS011;18401;49.344;6.240;2023-12-14T06:51:04;22.08;;;9.02;;
31836;SDS011;18401;49.344;6.240;2023-12-14T06:53:30;21.27;;;9.43;;
31836;SDS011;18401;49.344;6.240;2023-12-14T06:55:55;21.63;;;9.07;;
31836;SDS011;18401;49.344;6.240;2023-12-14T06:58:21;21.90;;;8.88;;
31836;SDS011;18401;49.344;6.240;2023-12-14T07:00:46;23.67;;;10.13;;
31836;SDS011;18401;49.344;6.240;2023-12-14T07:03:12;26.42;;;9.57;;
31836;SDS011;18401;49.344;6.240;2023-12-14T07:05:38;22.35;;;8.85;;
31836;SDS011;18401;49.344;6.240;2023-12-14T07:08:04;28.75;;;10.80;;
31836;SDS011;18401;49.344;6.240;2023-12-14T07:10:30;34.00;;;11.63;;
31836;SDS011;18401;49.344;6.240;2023-12-14T07:12:55;27.05;;;10.73;;
31836;SDS011;18401;49.344;6.240;2023-12-14T07:15:21;30.65;;;10.48;;
31836;SDS011;18401;49.344;6.240;2023-12-14T07:17:47;23.48;;;9.80;;
31836;SDS011;18401;49.344;6.240;2023-12-14T07:20:12;22.85;;;9.15;;
31836;SDS011;18401;49.344;6.240;2023-12-14T07:22:38;21.48;;;8.70;;
31836;SDS011;18401;49.344;6.240;2023-12-14T07:25:04;21.58;;;8.90;;
31836;SDS011;18401;49.344;6.240;2023-12-14T07:27:29;16.85;;;7.68;;
31836;SDS011;18401;49.344;6.240;2023-12-14T07:29:55;15.80;;;8.10;;
31836;SDS011;18401;49.344;6.240;2023-12-14T07:32:21;18.55;;;9.30;;
31836;SDS011;18401;49.344;6.240;2023-12-14T07:34:46;19.42;;;9.13;;
31836;SDS011;18401;49.344;6.240;2023-12-14T07:37:12;18.95;;;8.73;;
31836;SDS011;18401;49.344;6.240;2023-12-14T07:39:38;15.02;;;7.35;;
31836;SDS011;18401;49.344;6.240;2023-12-14T07:42:04;13.77;;;7.03;;
31836;SDS011;18401;49.344;6.240;2023-12-14T07:44:30;16.58;;;7.40;;
31836;SDS011;18401;49.344;6.240;2023-12-14T07:46:57;14.65;;;6.53;;
31836;SDS011;18401;49.344;6.240;2023-12-14T07:49:24;13.55;;;6.35;;
31836;SDS011;18401;49.344;6.240;2023-12-14T07:51:50;13.88;;;6.63;;
31836;SDS011;18401;49.344;6.240;2023-12-14T07:54:16;13.43;;;6.25;;
31836;SDS011;18401;49.344;6.240;2023-12-14T07:56:43;15.80;;;6.72;;
31836;SDS011;18401;49.344;6.240;2023-12-14T07:59:09;15.20;;;6.45;;
31836;SDS011;18401;49.344;6.240;2023-12-14T08:01:35;16.27;;;6.78;;
31836;SDS011;18401;49.344;6.240;2023-12-14T08:04:01;14.20;;;6.88;;
31836;SDS011;18401;49.344;6.240;2023-12-14T08:06:26;14.75;;;6.63;;
31836;SDS011;18401;49.344;6.240;2023-12-14T08:08:52;16.50;;;7.25;;
31836;SDS011;18401;49.344;6.240;2023-12-14T08:11:18;17.20;;;7.32;;
31836;SDS011;18401;49.344;6.240;2023-12-14T08:13:43;20.33;;;7.35;;
31836;SDS011;18401;49.344;6.240;2023-12-14T08:16:09;16.48;;;7.90;;
31836;SDS011;18401;49.344;6.240;2023-12-14T08:18:36;26.52;;;7.53;;
31836;SDS011;18401;49.344;6.240;2023-12-14T08:21:02;20.58;;;7.22;;
31836;SDS011;18401;49.344;6.240;2023-12-14T08:23:28;21.77;;;8.43;;
31836;SDS011;18401;49.344;6.240;2023-12-14T08:25:55;17.88;;;8.05;;
31836;SDS011;18401;49.344;6.240;2023-12-14T08:28:24;52.85;;;18.75;;
31836;SDS011;18401;49.344;6.240;2023-12-14T08:30:50;34.53;;;14.75;;
31836;SDS011;18401;49.344;6.240;2023-12-14T08:33:16;28.88;;;11.95;;
31836;SDS011;18401;49.344;6.240;2023-12-14T08:35:42;16.05;;;8.68;;
31836;SDS011;18401;49.344;6.240;2023-12-14T08:38:08;22.00;;;9.45;;
31836;SDS011;18401;49.344;6.240;2023-12-14T08:40:34;20.58;;;8.82;;
31836;SDS011;18401;49.344;6.240;2023-12-14T08:43:00;14.00;;;7.22;;
31836;SDS011;18401;49.344;6.240;2023-12-14T08:45:27;25.60;;;8.75;;
31836;SDS011;18401;49.344;6.240;2023-12-14T08:47:53;13.15;;;6.63;;
31836;SDS011;18401;49.344;6.240;2023-12-14T08:50:18;13.27;;;6.68;;
31836;SDS011;18401;49.344;6.240;2023-12-14T08:52:44;16.63;;;7.55;;
31836;SDS011;18401;49.344;6.240;2023-12-14T08:55:10;15.30;;;7.10;;
31836;SDS011;18401;49.344;6.240;2023-12-14T08:57:36;13.65;;;6.50;;
31836;SDS011;18401;49.344;6.240;2023-12-14T09:00:03;13.00;;;6.38;;
31836;SDS011;18401;49.344;6.240;2023-12-14T09:02:29;13.68;;;6.15;;
31836;SDS011;18401;49.344;6.240;2023-12-14T09:04:55;14.43;;;6.80;;
31836;SDS011;18401;49.344;6.240;2023-12-14T09:07:21;13.77;;;6.30;;
31836;SDS011;18401;49.344;6.240;2023-12-14T09:09:46;17.27;;;6.80;;
31836;SDS011;18401;49.344;6.240;2023-12-14T09:12:12;20.58;;;6.80;;
31836;SDS011;18401;49.344;6.240;2023-12-14T09:14:38;19.38;;;7.57;;
31836;SDS011;18401;49.344;6.240;2023-12-14T09:17:03;17.70;;;7.32;;
31836;SDS011;18401;49.344;6.240;2023-12-14T09:19:29;20.15;;;6.95;;
31836;SDS011;18401;49.344;6.240;2023-12-14T09:21:56;18.33;;;7.47;;
31836;SDS011;18401;49.344;6.240;2023-12-14T09:24:22;22.20;;;7.63;;
31836;SDS011;18401;49.344;6.240;2023-12-14T09:26:48;17.17;;;6.97;;
31836;SDS011;18401;49.344;6.240;2023-12-14T09:29:13;18.20;;;7.85;;
31836;SDS011;18401;49.344;6.240;2023-12-14T09:31:43;19.35;;;8.13;;
31836;SDS011;18401;49.344;6.240;2023-12-14T09:34:10;20.23;;;8.43;;
31836;SDS011;18401;49.344;6.240;2023-12-14T09:36:35;18.33;;;7.90;;
31836;SDS011;18401;49.344;6.240;2023-12-14T09:39:01;20.10;;;8.50;;
31836;SDS011;18401;49.344;6.240;2023-12-14T09:41:27;29.15;;;9.88;;
31836;SDS011;18401;49.344;6.240;2023-12-14T09:43:53;21.20;;;8.45;;
31836;SDS011;18401;49.344;6.240;2023-12-14T09:46:20;18.90;;;8.23;;
31836;SDS011;18401;49.344;6.240;2023-12-14T09:48:46;17.40;;;7.82;;
31836;SDS011;18401;49.344;6.240;2023-12-14T09:51:14;19.85;;;8.18;;
31836;SDS011;18401;49.344;6.240;2023-12-14T09:53:41;19.05;;;7.78;;
31836;SDS011;18401;49.344;6.240;2023-12-14T09:56:07;16.83;;;8.00;;
31836;SDS011;18401;49.344;6.240;2023-12-14T09:58:33;16.17;;;7.47;;
31836;SDS011;18401;49.344;6.240;2023-12-14T10:00:59;19.00;;;8.27;;
31836;SDS011;18401;49.344;6.240;2023-12-14T10:03:29;20.67;;;8.68;;
31836;SDS011;18401;49.344;6.240;2023-12-14T10:05:57;21.63;;;8.27;;
31836;SDS011;18401;49.344;6.240;2023-12-14T10:08:26;17.15;;;7.75;;
31836;SDS011;18401;49.344;6.240;2023-12-14T10:10:53;15.30;;;7.72;;
31836;SDS011;18401;49.344;6.240;2023-12-14T10:13:22;16.33;;;6.97;;
31836;SDS011;18401;49.344;6.240;2023-12-14T10:16:02;18.20;;;7.03;;
31836;SDS011;18401;49.344;6.240;2023-12-14T10:18:28;16.95;;;7.32;;
31836;SDS011;18401;49.344;6.240;2023-12-14T10:20:56;15.13;;;6.35;;
31836;SDS011;18401;49.344;6.240;2023-12-14T10:23:22;17.38;;;6.97;;
31836;SDS011;18401;49.344;6.240;2023-12-14T10:25:47;17.98;;;7.47;;
31836;SDS011;18401;49.344;6.240;2023-12-14T10:28:13;15.38;;;6.32;;
31836;SDS011;18401;49.344;6.240;2023-12-14T10:30:39;16.48;;;6.82;;
31836;SDS011;18401;49.344;6.240;2023-12-14T10:33:06;14.68;;;6.88;;
31836;SDS011;18401;49.344;6.240;2023-12-14T10:35:32;15.90;;;6.63;;
31836;SDS011;18401;49.344;6.240;2023-12-14T10:37:58;12.00;;;5.70;;
31836;SDS011;18401;49.344;6.240;2023-12-14T10:40:31;12.90;;;5.28;;
31836;SDS011;18401;49.344;6.240;2023-12-14T10:42:58;12.60;;;5.10;;
31836;SDS011;18401;49.344;6.240;2023-12-14T10:45:26;11.30;;;5.45;;
31836;SDS011;18401;49.344;6.240;2023-12-14T10:47:58;12.00;;;5.75;;
31836;SDS011;18401;49.344;6.240;2023-12-14T10:50:29;12.63;;;4.70;;
31836;SDS011;18401;49.344;6.240;2023-12-14T10:52:55;11.85;;;5.47;;
31836;SDS011;18401;49.344;6.240;2023-12-14T10:57:48;8.15;;;4.75;;
31836;SDS011;18401;49.344;6.240;2023-12-14T11:00:13;9.40;;;5.15;;
31836;SDS011;18401;49.344;6.240;2023-12-14T11:02:44;10.18;;;5.15;;
31836;SDS011;18401;49.344;6.240;2023-12-14T11:05:12;9.40;;;5.00;;
31836;SDS011;18401;49.344;6.240;2023-12-14T11:07:50;11.88;;;5.93;;
31836;SDS011;18401;49.344;6.240;2023-12-14T11:10:22;8.73;;;4.88;;
31836;SDS011;18401;49.344;6.240;2023-12-14T11:15:19;10.57;;;5.40;;
31836;SDS011;18401;49.344;6.240;2023-12-14T11:18:19;11.07;;;4.88;;
31836;SDS011;18401;49.344;6.240;2023-12-14T11:20:54;9.95;;;5.05;;
31836;SDS011;18401;49.344;6.240;2023-12-14T11:25:51;11.00;;;5.35;;
31836;SDS011;18401;49.344;6.240;2023-12-14T11:28:25;8.93;;;4.28;;
31836;SDS011;18401;49.344;6.240;2023-12-14T11:30:54;7.05;;;3.75;;
31836;SDS011;18401;49.344;6.240;2023-12-14T11:33:20;8.70;;;4.30;;
31836;SDS011;18401;49.344;6.240;2023-12-14T11:35:46;9.75;;;4.00;;
31836;SDS011;18401;49.344;6.240;2023-12-14T11:38:12;7.95;;;4.03;;
31836;SDS011;18401;49.344;6.240;2023-12-14T11:40:44;10.73;;;4.20;;
31836;SDS011;18401;49.344;6.240;2023-12-14T11:43:10;8.15;;;3.92;;
31836;SDS011;18401;49.344;6.240;2023-12-14T11:45:37;8.75;;;3.92;;
31836;SDS011;18401;49.344;6.240;2023-12-14T11:48:11;11.65;;;4.40;;
31836;SDS011;18401;49.344;6.240;2023-12-14T11:50:37;9.95;;;4.57;;
31836;SDS011;18401;49.344;6.240;2023-12-14T11:53:04;8.82;;;3.95;;
31836;SDS011;18401;49.344;6.240;2023-12-14T11:55:30;8.85;;;3.95;;
31836;SDS011;18401;49.344;6.240;2023-12-14T11:57:57;6.60;;;3.67;;
31836;SDS011;18401;49.344;6.240;2023-12-14T12:00:26;6.57;;;3.47;;
31836;SDS011;18401;49.344;6.240;2023-12-14T12:05:46;5.35;;;3.17;;
31836;SDS011;18401;49.344;6.240;2023-12-14T12:08:13;7.53;;;2.60;;
31836;SDS011;18401;49.344;6.240;2023-12-14T12:10:40;6.40;;;2.88;;
31836;SDS011;18401;49.344;6.240;2023-12-14T12:13:07;5.22;;;2.50;;
31836;SDS011;18401;49.344;6.240;2023-12-14T12:15:37;3.63;;;2.25;;
31836;SDS011;18401;49.344;6.240;2023-12-14T12:18:05;3.50;;;2.30;;
31836;SDS011;18401;49.344;6.240;2023-12-14T12:20:32;5.07;;;3.25;;
31836;SDS011;18401;49.344;6.240;2023-12-14T12:22:59;6.88;;;3.58;;
31836;SDS011;18401;49.344;6.240;2023-12-14T12:25:26;6.72;;;3.17;;
31836;SDS011;18401;49.344;6.240;2023-12-14T12:27:53;3.15;;;2.38;;
31836;SDS011;18401;49.344;6.240;2023-12-14T12:30:20;3.20;;;2.17;;
31836;SDS011;18401;49.344;6.240;2023-12-14T12:32:46;4.45;;;2.97;;
31836;SDS011;18401;49.344;6.240;2023-12-14T12:35:12;4.72;;;2.65;;
31836;SDS011;18401;49.344;6.240;2023-12-14T12:37:38;3.78;;;2.75;;
31836;SDS011;18401;49.344;6.240;2023-12-14T12:40:05;6.65;;;3.30;;
31836;SDS011;18401;49.344;6.240;2023-12-14T12:42:32;4.75;;;3.10;;
31836;SDS011;18401;49.344;6.240;2023-12-14T12:44:57;5.97;;;3.42;;
31836;SDS011;18401;49.344;6.240;2023-12-14T12:47:23;6.97;;;3.92;;
31836;SDS011;18401;49.344;6.240;2023-12-14T12:49:49;10.65;;;6.07;;
31836;SDS011;18401;49.344;6.240;2023-12-14T12:52:14;6.15;;;4.20;;
31836;SDS011;18401;49.344;6.240;2023-12-14T12:54:40;12.15;;;5.47;;
31836;SDS011;18401;49.344;6.240;2023-12-14T12:57:06;9.60;;;5.53;;
31836;SDS011;18401;49.344;6.240;2023-12-14T12:59:31;6.32;;;4.05;;
31836;SDS011;18401;49.344;6.240;2023-12-14T13:01:58;7.53;;;4.53;;
31836;SDS011;18401;49.344;6.240;2023-12-14T13:04:24;5.63;;;3.50;;
31836;SDS011;18401;49.344;6.240;2023-12-14T13:06:51;7.25;;;3.97;;
31836;SDS011;18401;49.344;6.240;2023-12-14T13:09:17;5.75;;;3.45;;
31836;SDS011;18401;49.344;6.240;2023-12-14T13:11:44;6.85;;;3.42;;
31836;SDS011;18401;49.344;6.240;2023-12-14T13:14:10;7.25;;;3.33;;
31836;SDS011;18401;49.344;6.240;2023-12-14T13:16:37;6.03;;;3.58;;
31836;SDS011;18401;49.344;6.240;2023-12-14T13:19:03;7.15;;;3.42;;
31836;SDS011;18401;49.344;6.240;2023-12-14T13:21:31;6.35;;;4.10;;
31836;SDS011;18401;49.344;6.240;2023-12-14T13:24:00;5.57;;;3.47;;
31836;SDS011;18401;49.344;6.240;2023-12-14T13:26:26;7.53;;;4.30;;
31836;SDS011;18401;49.344;6.240;2023-12-14T13:28:52;6.22;;;4.10;;
31836;SDS011;18401;49.344;6.240;2023-12-14T13:31:18;8.98;;;4.43;;
31836;SDS011;18401;49.344;6.240;2023-12-14T13:33:44;6.20;;;4.13;;
31836;SDS011;18401;49.344;6.240;2023-12-14T13:36:11;8.85;;;4.20;;
31836;SDS011;18401;49.344;6.240;2023-12-14T13:38:37;8.65;;;4.70;;
31836;SDS011;18401;49.344;6.240;2023-12-14T13:41:02;6.78;;;3.63;;
31836;SDS011;18401;49.344;6.240;2023-12-14T13:43:29;6.28;;;3.90;;
31836;SDS011;18401;49.344;6.240;2023-12-14T13:45:55;6.68;;;3.78;;
31836;SDS011;18401;49.344;6.240;2023-12-14T13:48:26;8.13;;;3.65;;
31836;SDS011;18401;49.344;6.240;2023-12-14T13:50:55;8.18;;;4.40;;
31836;SDS011;18401;49.344;6.240;2023-12-14T13:53:23;7.63;;;4.20;;
31836;SDS011;18401;49.344;6.240;2023-12-14T13:55:50;8.13;;;4.78;;
31836;SDS011;18401;49.344;6.240;2023-12-14T13:58:16;8.00;;;4.93;;
31836;SDS011;18401;49.344;6.240;2023-12-14T14:00:42;8.48;;;4.60;;
31836;SDS011;18401;49.344;6.240;2023-12-14T14:03:09;10.73;;;6.13;;
31836;SDS011;18401;49.344;6.240;2023-12-14T14:05:35;9.93;;;4.55;;
31836;SDS011;18401;49.344;6.240;2023-12-14T14:08:01;9.23;;;5.18;;
31836;SDS011;18401;49.344;6.240;2023-12-14T14:10:27;7.43;;;4.60;;
31836;SDS011;18401;49.344;6.240;2023-12-14T14:12:52;9.20;;;5.18;;
31836;SDS011;18401;49.344;6.240;2023-12-14T14:15:18;11.43;;;5.78;;
31836;SDS011;18401;49.344;6.240;2023-12-14T14:17:47;9.38;;;5.22;;
31836;SDS011;18401;49.344;6.240;2023-12-14T14:20:17;9.73;;;5.13;;
31836;SDS011;18401;49.344;6.240;2023-12-14T14:22:43;9.63;;;5.53;;
31836;SDS011;18401;49.344;6.240;2023-12-14T14:25:09;12.43;;;5.22;;
31836;SDS011;18401;49.344;6.240;2023-12-14T14:27:35;9.02;;;4.70;;
31836;SDS011;18401;49.344;6.240;2023-12-14T14:30:01;9.35;;;4.70;;
31836;SDS011;18401;49.344;6.240;2023-12-14T14:32:27;7.63;;;4.80;;
31836;SDS011;18401;49.344;6.240;2023-12-14T14:34:52;7.38;;;4.38;;
31836;SDS011;18401;49.344;6.240;2023-12-14T14:37:20;8.75;;;4.43;;
31836;SDS011;18401;49.344;6.240;2023-12-14T14:39:45;45.92;;;16.45;;
31836;SDS011;18401;49.344;6.240;2023-12-14T14:42:12;6.80;;;4.78;;
31836;SDS011;18401;49.344;6.240;2023-12-14T14:44:38;6.10;;;4.28;;